Terminal Aerodrome Forecast
Issued by NWS North Platte, NE

Home | Current Version | Previous Version | Text Only | Print | Product List | Glossary On
Versions: 1 2 3 4 5 6 7 8 9 10 11 12 13 14 15 16 17 18 19
433
FTUS43 KLBF 201604 AAA
TAFLBF
TAF AMD
KLBF 201604Z 2016/2112 16012G18KT P6SM VCSH OVC100
     FM202000 13014G21KT P6SM VCSH BKN050 OVC100
     FM202100 13013G20KT P6SM -SHRA OVC050
     FM202300 11013KT P6SM -RA BKN030 OVC050
     FM210500 10012KT 5SM -RA BR OVC020=

USA.gov is the U.S. government's official web portal to all federal, state and local government web resources and services.